sensor_id;sensor_type;location;lat;lon;timestamp;P1;durP1;ratioP1;P2;durP2;ratioP2
54959;SDS011;40860;51.710;8.736;2023-09-19T00:00:11;2.38;;;1.85;;
54959;SDS011;40860;51.710;8.736;2023-09-19T00:04:15;2.03;;;1.60;;
54959;SDS011;40860;51.710;8.736;2023-09-19T00:08:20;1.90;;;1.75;;
54959;SDS011;40860;51.710;8.736;2023-09-19T00:12:26;3.97;;;1.83;;
54959;SDS011;40860;51.710;8.736;2023-09-19T00:16:32;2.75;;;1.88;;
54959;SDS011;40860;51.710;8.736;2023-09-19T00:20:38;3.03;;;2.17;;
54959;SDS011;40860;51.710;8.736;2023-09-19T00:24:44;2.47;;;2.00;;
54959;SDS011;40860;51.710;8.736;2023-09-19T00:28:48;4.07;;;2.30;;
54959;SDS011;40860;51.710;8.736;2023-09-19T00:32:55;4.70;;;2.38;;
54959;SDS011;40860;51.710;8.736;2023-09-19T00:36:59;3.15;;;2.25;;
54959;SDS011;40860;51.710;8.736;2023-09-19T00:41:02;4.70;;;2.30;;
54959;SDS011;40860;51.710;8.736;2023-09-19T00:45:06;4.63;;;2.30;;
54959;SDS011;40860;51.710;8.736;2023-09-19T00:49:12;4.10;;;2.33;;
54959;SDS011;40860;51.710;8.736;2023-09-19T00:53:17;4.53;;;2.42;;
54959;SDS011;40860;51.710;8.736;2023-09-19T00:57:28;5.03;;;2.50;;
54959;SDS011;40860;51.710;8.736;2023-09-19T01:01:34;3.10;;;2.17;;
54959;SDS011;40860;51.710;8.736;2023-09-19T01:05:41;4.18;;;2.40;;
54959;SDS011;40860;51.710;8.736;2023-09-19T01:09:45;3.55;;;2.33;;
54959;SDS011;40860;51.710;8.736;2023-09-19T01:13:56;2.30;;;2.10;;
54959;SDS011;40860;51.710;8.736;2023-09-19T01:18:08;4.32;;;2.35;;
54959;SDS011;40860;51.710;8.736;2023-09-19T01:22:21;5.10;;;2.60;;
54959;SDS011;40860;51.710;8.736;2023-09-19T01:26:41;4.88;;;2.63;;
54959;SDS011;40860;51.710;8.736;2023-09-19T01:30:59;4.65;;;2.45;;
54959;SDS011;40860;51.710;8.736;2023-09-19T01:35:05;4.85;;;2.50;;
54959;SDS011;40860;51.710;8.736;2023-09-19T01:39:12;5.28;;;2.67;;
54959;SDS011;40860;51.710;8.736;2023-09-19T01:43:17;4.07;;;2.38;;
54959;SDS011;40860;51.710;8.736;2023-09-19T01:47:28;3.97;;;2.83;;
54959;SDS011;40860;51.710;8.736;2023-09-19T01:51:37;4.40;;;2.75;;
54959;SDS011;40860;51.710;8.736;2023-09-19T01:55:47;5.00;;;2.50;;
54959;SDS011;40860;51.710;8.736;2023-09-19T01:59:54;5.65;;;2.60;;
54959;SDS011;40860;51.710;8.736;2023-09-19T02:04:14;5.40;;;2.80;;
54959;SDS011;40860;51.710;8.736;2023-09-19T02:08:18;7.60;;;2.80;;
54959;SDS011;40860;51.710;8.736;2023-09-19T02:12:22;6.68;;;2.40;;
54959;SDS011;40860;51.710;8.736;2023-09-19T02:16:25;5.05;;;2.20;;
54959;SDS011;40860;51.710;8.736;2023-09-19T02:20:29;5.97;;;2.65;;
54959;SDS011;40860;51.710;8.736;2023-09-19T02:24:34;4.53;;;2.35;;
54959;SDS011;40860;51.710;8.736;2023-09-19T02:28:38;3.83;;;1.95;;
54959;SDS011;40860;51.710;8.736;2023-09-19T02:32:42;4.07;;;2.10;;
54959;SDS011;40860;51.710;8.736;2023-09-19T02:36:47;6.03;;;2.22;;
54959;SDS011;40860;51.710;8.736;2023-09-19T02:40:50;6.90;;;1.95;;
54959;SDS011;40860;51.710;8.736;2023-09-19T02:44:53;7.00;;;2.42;;
54959;SDS011;40860;51.710;8.736;2023-09-19T02:48:58;7.38;;;2.20;;
54959;SDS011;40860;51.710;8.736;2023-09-19T02:53:02;7.78;;;2.20;;
54959;SDS011;40860;51.710;8.736;2023-09-19T02:57:06;5.80;;;2.25;;
54959;SDS011;40860;51.710;8.736;2023-09-19T03:01:12;7.22;;;2.60;;
54959;SDS011;40860;51.710;8.736;2023-09-19T03:05:16;7.85;;;2.20;;
54959;SDS011;40860;51.710;8.736;2023-09-19T03:09:21;8.73;;;2.53;;
54959;SDS011;40860;51.710;8.736;2023-09-19T03:13:24;6.00;;;2.05;;
54959;SDS011;40860;51.710;8.736;2023-09-19T03:17:27;8.45;;;2.70;;
54959;SDS011;40860;51.710;8.736;2023-09-19T03:21:31;8.63;;;2.90;;
54959;SDS011;40860;51.710;8.736;2023-09-19T03:25:35;8.73;;;2.22;;
54959;SDS011;40860;51.710;8.736;2023-09-19T03:29:38;8.32;;;2.20;;
54959;SDS011;40860;51.710;8.736;2023-09-19T03:33:41;8.32;;;2.40;;
54959;SDS011;40860;51.710;8.736;2023-09-19T03:37:44;7.18;;;2.40;;
54959;SDS011;40860;51.710;8.736;2023-09-19T03:41:50;7.75;;;2.70;;
54959;SDS011;40860;51.710;8.736;2023-09-19T03:45:52;10.55;;;2.53;;
54959;SDS011;40860;51.710;8.736;2023-09-19T03:49:57;7.43;;;2.60;;
54959;SDS011;40860;51.710;8.736;2023-09-19T03:54:00;8.35;;;2.70;;
54959;SDS011;40860;51.710;8.736;2023-09-19T03:58:06;9.98;;;2.63;;
54959;SDS011;40860;51.710;8.736;2023-09-19T04:02:09;11.98;;;2.70;;
54959;SDS011;40860;51.710;8.736;2023-09-19T04:06:24;6.07;;;2.60;;
54959;SDS011;40860;51.710;8.736;2023-09-19T04:10:31;9.63;;;2.50;;
54959;SDS011;40860;51.710;8.736;2023-09-19T04:14:36;9.35;;;2.60;;
54959;SDS011;40860;51.710;8.736;2023-09-19T04:18:39;7.18;;;2.58;;
54959;SDS011;40860;51.710;8.736;2023-09-19T04:22:43;9.95;;;2.83;;
54959;SDS011;40860;51.710;8.736;2023-09-19T04:26:46;6.57;;;2.47;;
54959;SDS011;40860;51.710;8.736;2023-09-19T04:30:51;7.07;;;2.42;;
54959;SDS011;40860;51.710;8.736;2023-09-19T04:34:53;8.43;;;2.67;;
54959;SDS011;40860;51.710;8.736;2023-09-19T04:39:01;22.17;;;6.65;;
54959;SDS011;40860;51.710;8.736;2023-09-19T04:43:06;11.38;;;2.90;;
54959;SDS011;40860;51.710;8.736;2023-09-19T04:47:10;9.82;;;2.88;;
54959;SDS011;40860;51.710;8.736;2023-09-19T04:51:13;9.88;;;2.75;;
54959;SDS011;40860;51.710;8.736;2023-09-19T04:55:17;9.80;;;2.40;;
54959;SDS011;40860;51.710;8.736;2023-09-19T04:59:20;10.63;;;2.97;;
54959;SDS011;40860;51.710;8.736;2023-09-19T05:03:25;9.00;;;2.70;;
54959;SDS011;40860;51.710;8.736;2023-09-19T05:07:29;9.32;;;2.80;;
54959;SDS011;40860;51.710;8.736;2023-09-19T05:11:31;6.45;;;2.33;;
54959;SDS011;40860;51.710;8.736;2023-09-19T05:15:35;7.90;;;2.10;;
54959;SDS011;40860;51.710;8.736;2023-09-19T05:19:39;8.43;;;2.80;;
54959;SDS011;40860;51.710;8.736;2023-09-19T05:23:42;7.85;;;2.53;;
54959;SDS011;40860;51.710;8.736;2023-09-19T05:27:46;9.15;;;2.35;;
54959;SDS011;40860;51.710;8.736;2023-09-19T05:31:49;9.00;;;2.75;;
54959;SDS011;40860;51.710;8.736;2023-09-19T05:35:54;7.32;;;2.40;;
54959;SDS011;40860;51.710;8.736;2023-09-19T05:39:57;7.85;;;2.45;;
54959;SDS011;40860;51.710;8.736;2023-09-19T05:44:03;6.43;;;2.17;;
54959;SDS011;40860;51.710;8.736;2023-09-19T05:48:08;10.68;;;2.72;;
54959;SDS011;40860;51.710;8.736;2023-09-19T05:52:14;9.55;;;2.42;;
54959;SDS011;40860;51.710;8.736;2023-09-19T05:56:19;10.93;;;2.30;;
54959;SDS011;40860;51.710;8.736;2023-09-19T06:00:22;9.40;;;2.30;;
54959;SDS011;40860;51.710;8.736;2023-09-19T06:04:28;8.68;;;2.53;;
54959;SDS011;40860;51.710;8.736;2023-09-19T06:08:33;8.77;;;2.40;;
54959;SDS011;40860;51.710;8.736;2023-09-19T06:12:37;10.30;;;2.72;;
54959;SDS011;40860;51.710;8.736;2023-09-19T06:16:40;6.20;;;2.38;;
54959;SDS011;40860;51.710;8.736;2023-09-19T06:20:45;11.18;;;2.80;;
54959;SDS011;40860;51.710;8.736;2023-09-19T06:24:49;7.65;;;2.42;;
54959;SDS011;40860;51.710;8.736;2023-09-19T06:28:52;7.93;;;2.83;;
54959;SDS011;40860;51.710;8.736;2023-09-19T06:32:57;5.68;;;2.20;;
54959;SDS011;40860;51.710;8.736;2023-09-19T06:37:01;10.50;;;2.72;;
54959;SDS011;40860;51.710;8.736;2023-09-19T06:41:06;8.18;;;2.80;;
54959;SDS011;40860;51.710;8.736;2023-09-19T06:45:09;7.25;;;2.25;;
54959;SDS011;40860;51.710;8.736;2023-09-19T06:49:14;6.75;;;2.40;;
54959;SDS011;40860;51.710;8.736;2023-09-19T06:53:17;7.85;;;2.67;;
54959;SDS011;40860;51.710;8.736;2023-09-19T06:57:21;9.60;;;2.95;;
54959;SDS011;40860;51.710;8.736;2023-09-19T07:01:24;8.98;;;2.72;;
54959;SDS011;40860;51.710;8.736;2023-09-19T07:05:27;7.97;;;2.20;;
54959;SDS011;40860;51.710;8.736;2023-09-19T07:09:30;9.48;;;2.92;;
54959;SDS011;40860;51.710;8.736;2023-09-19T07:13:34;10.15;;;2.88;;
54959;SDS011;40860;51.710;8.736;2023-09-19T07:17:38;7.90;;;2.80;;
54959;SDS011;40860;51.710;8.736;2023-09-19T07:21:41;6.78;;;2.30;;
54959;SDS011;40860;51.710;8.736;2023-09-19T07:25:44;6.15;;;2.10;;
54959;SDS011;40860;51.710;8.736;2023-09-19T07:29:48;7.78;;;2.38;;
54959;SDS011;40860;51.710;8.736;2023-09-19T07:33:55;8.50;;;2.80;;
54959;SDS011;40860;51.710;8.736;2023-09-19T07:37:58;7.15;;;2.53;;
54959;SDS011;40860;51.710;8.736;2023-09-19T07:42:02;6.32;;;2.03;;
54959;SDS011;40860;51.710;8.736;2023-09-19T07:46:09;5.25;;;2.25;;
54959;SDS011;40860;51.710;8.736;2023-09-19T07:50:13;11.30;;;2.50;;
54959;SDS011;40860;51.710;8.736;2023-09-19T07:54:17;5.90;;;2.20;;
54959;SDS011;40860;51.710;8.736;2023-09-19T07:58:20;7.32;;;2.47;;
54959;SDS011;40860;51.710;8.736;2023-09-19T08:02:25;9.55;;;2.42;;
54959;SDS011;40860;51.710;8.736;2023-09-19T08:06:29;8.55;;;2.22;;
54959;SDS011;40860;51.710;8.736;2023-09-19T08:10:34;11.57;;;2.70;;
54959;SDS011;40860;51.710;8.736;2023-09-19T08:14:41;5.50;;;2.25;;
54959;SDS011;40860;51.710;8.736;2023-09-19T08:18:48;8.98;;;2.50;;
54959;SDS011;40860;51.710;8.736;2023-09-19T08:22:56;6.47;;;2.25;;
54959;SDS011;40860;51.710;8.736;2023-09-19T08:26:59;8.70;;;2.17;;
54959;SDS011;40860;51.710;8.736;2023-09-19T08:31:02;7.32;;;2.17;;
54959;SDS011;40860;51.710;8.736;2023-09-19T08:35:08;11.10;;;3.03;;
54959;SDS011;40860;51.710;8.736;2023-09-19T08:39:11;5.32;;;2.42;;
54959;SDS011;40860;51.710;8.736;2023-09-19T08:43:15;8.73;;;2.60;;
54959;SDS011;40860;51.710;8.736;2023-09-19T08:47:19;9.73;;;2.55;;
54959;SDS011;40860;51.710;8.736;2023-09-19T08:51:30;7.95;;;2.38;;
54959;SDS011;40860;51.710;8.736;2023-09-19T08:55:42;10.23;;;3.22;;
54959;SDS011;40860;51.710;8.736;2023-09-19T08:59:46;12.13;;;3.28;;
54959;SDS011;40860;51.710;8.736;2023-09-19T09:03:50;6.38;;;2.78;;
54959;SDS011;40860;51.710;8.736;2023-09-19T09:07:56;9.93;;;3.05;;
54959;SDS011;40860;51.710;8.736;2023-09-19T09:12:01;9.30;;;2.97;;
54959;SDS011;40860;51.710;8.736;2023-09-19T09:16:06;13.00;;;3.45;;
54959;SDS011;40860;51.710;8.736;2023-09-19T09:20:10;13.48;;;3.00;;
54959;SDS011;40860;51.710;8.736;2023-09-19T09:24:27;8.35;;;2.78;;
54959;SDS011;40860;51.710;8.736;2023-09-19T09:28:32;12.45;;;3.28;;
54959;SDS011;40860;51.710;8.736;2023-09-19T09:32:36;10.45;;;3.00;;
54959;SDS011;40860;51.710;8.736;2023-09-19T09:36:56;7.53;;;3.10;;
54959;SDS011;40860;51.710;8.736;2023-09-19T09:41:00;10.25;;;2.92;;
54959;SDS011;40860;51.710;8.736;2023-09-19T09:45:15;8.30;;;2.60;;
54959;SDS011;40860;51.710;8.736;2023-09-19T09:49:22;10.00;;;3.05;;
54959;SDS011;40860;51.710;8.736;2023-09-19T09:53:28;8.48;;;2.65;;
54959;SDS011;40860;51.710;8.736;2023-09-19T09:57:34;7.82;;;2.63;;
54959;SDS011;40860;51.710;8.736;2023-09-19T10:01:45;8.52;;;2.60;;
54959;SDS011;40860;51.710;8.736;2023-09-19T10:05:53;10.20;;;2.80;;
54959;SDS011;40860;51.710;8.736;2023-09-19T10:09:56;7.93;;;2.58;;
54959;SDS011;40860;51.710;8.736;2023-09-19T10:14:07;7.72;;;2.40;;
54959;SDS011;40860;51.710;8.736;2023-09-19T10:18:13;8.25;;;2.63;;
54959;SDS011;40860;51.710;8.736;2023-09-19T10:22:19;7.10;;;2.75;;
54959;SDS011;40860;51.710;8.736;2023-09-19T10:26:24;5.85;;;2.40;;
54959;SDS011;40860;51.710;8.736;2023-09-19T10:30:33;7.00;;;2.67;;
54959;SDS011;40860;51.710;8.736;2023-09-19T10:34:40;5.88;;;2.90;;
54959;SDS011;40860;51.710;8.736;2023-09-19T10:38:44;5.43;;;2.28;;
54959;SDS011;40860;51.710;8.736;2023-09-19T10:42:49;7.72;;;2.70;;
54959;SDS011;40860;51.710;8.736;2023-09-19T10:46:54;8.07;;;2.70;;
54959;SDS011;40860;51.710;8.736;2023-09-19T10:51:02;5.97;;;2.53;;
54959;SDS011;40860;51.710;8.736;2023-09-19T10:55:08;6.82;;;2.67;;
54959;SDS011;40860;51.710;8.736;2023-09-19T10:59:19;10.52;;;3.00;;
54959;SDS011;40860;51.710;8.736;2023-09-19T11:03:26;6.85;;;2.38;;
54959;SDS011;40860;51.710;8.736;2023-09-19T11:07:32;5.97;;;2.55;;
54959;SDS011;40860;51.710;8.736;2023-09-19T11:12:02;5.20;;;2.58;;
54959;SDS011;40860;51.710;8.736;2023-09-19T11:16:06;8.98;;;3.08;;
54959;SDS011;40860;51.710;8.736;2023-09-19T11:20:21;9.82;;;3.08;;
54959;SDS011;40860;51.710;8.736;2023-09-19T11:24:42;9.25;;;2.83;;
54959;SDS011;40860;51.710;8.736;2023-09-19T11:28:45;9.52;;;2.42;;
54959;SDS011;40860;51.710;8.736;2023-09-19T11:42:08;6.38;;;2.40;;
54959;SDS011;40860;51.710;8.736;2023-09-19T11:46:53;7.57;;;2.88;;
54959;SDS011;40860;51.710;8.736;2023-09-19T11:50:58;7.60;;;2.80;;
54959;SDS011;40860;51.710;8.736;2023-09-19T11:55:03;4.35;;;2.33;;
54959;SDS011;40860;51.710;8.736;2023-09-19T11:59:08;6.63;;;2.47;;
54959;SDS011;40860;51.710;8.736;2023-09-19T12:03:11;6.70;;;2.60;;
54959;SDS011;40860;51.710;8.736;2023-09-19T12:07:15;7.00;;;2.53;;
54959;SDS011;40860;51.710;8.736;2023-09-19T12:11:21;9.02;;;3.03;;
54959;SDS011;40860;51.710;8.736;2023-09-19T12:15:27;7.68;;;2.55;;
54959;SDS011;40860;51.710;8.736;2023-09-19T12:19:35;6.18;;;2.70;;
54959;SDS011;40860;51.710;8.736;2023-09-19T12:23:39;6.53;;;2.70;;
54959;SDS011;40860;51.710;8.736;2023-09-19T12:27:44;6.38;;;2.53;;
54959;SDS011;40860;51.710;8.736;2023-09-19T12:31:50;6.38;;;2.70;;
54959;SDS011;40860;51.710;8.736;2023-09-19T12:35:56;6.82;;;2.47;;
54959;SDS011;40860;51.710;8.736;2023-09-19T12:40:04;5.50;;;3.05;;
54959;SDS011;40860;51.710;8.736;2023-09-19T12:44:17;6.78;;;2.58;;
54959;SDS011;40860;51.710;8.736;2023-09-19T12:48:22;8.70;;;2.60;;
54959;SDS011;40860;51.710;8.736;2023-09-19T12:52:36;7.30;;;2.65;;
54959;SDS011;40860;51.710;8.736;2023-09-19T12:56:39;9.38;;;3.00;;
54959;SDS011;40860;51.710;8.736;2023-09-19T13:00:45;6.13;;;2.58;;
54959;SDS011;40860;51.710;8.736;2023-09-19T13:04:54;6.55;;;2.28;;
54959;SDS011;40860;51.710;8.736;2023-09-19T13:09:07;5.72;;;2.40;;
54959;SDS011;40860;51.710;8.736;2023-09-19T13:13:22;5.35;;;2.17;;
54959;SDS011;40860;51.710;8.736;2023-09-19T13:17:42;7.50;;;2.30;;
54959;SDS011;40860;51.710;8.736;2023-09-19T13:21:46;6.93;;;2.10;;
54959;SDS011;40860;51.710;8.736;2023-09-19T13:25:52;4.57;;;1.95;;
54959;SDS011;40860;51.710;8.736;2023-09-19T13:29:55;4.93;;;2.38;;
54959;SDS011;40860;51.710;8.736;2023-09-19T13:33:59;4.68;;;1.83;;
54959;SDS011;40860;51.710;8.736;2023-09-19T13:38:03;5.22;;;1.85;;
54959;SDS011;40860;51.710;8.736;2023-09-19T13:42:08;5.60;;;1.90;;
54959;SDS011;40860;51.710;8.736;2023-09-19T13:46:13;4.65;;;2.10;;
54959;SDS011;40860;51.710;8.736;2023-09-19T13:50:17;3.80;;;1.90;;
54959;SDS011;40860;51.710;8.736;2023-09-19T13:54:26;4.22;;;2.10;;
54959;SDS011;40860;51.710;8.736;2023-09-19T13:58:29;4.00;;;2.00;;
54959;SDS011;40860;51.710;8.736;2023-09-19T14:02:34;4.60;;;1.80;;
54959;SDS011;40860;51.710;8.736;2023-09-19T14:06:38;5.60;;;2.13;;
54959;SDS011;40860;51.710;8.736;2023-09-19T14:10:45;6.40;;;2.08;;
54959;SDS011;40860;51.710;8.736;2023-09-19T14:14:48;6.50;;;2.13;;
54959;SDS011;40860;51.710;8.736;2023-09-19T14:18:52;6.93;;;2.33;;
54959;SDS011;40860;51.710;8.736;2023-09-19T14:22:55;3.83;;;1.90;;
54959;SDS011;40860;51.710;8.736;2023-09-19T14:27:01;4.07;;;1.80;;
54959;SDS011;40860;51.710;8.736;2023-09-19T14:31:05;6.55;;;1.90;;
54959;SDS011;40860;51.710;8.736;2023-09-19T14:35:09;5.20;;;2.42;;
54959;SDS011;40860;51.710;8.736;2023-09-19T14:39:16;6.95;;;1.83;;
54959;SDS011;40860;51.710;8.736;2023-09-19T14:43:22;5.38;;;2.25;;
54959;SDS011;40860;51.710;8.736;2023-09-19T14:47:25;3.35;;;1.92;;
54959;SDS011;40860;51.710;8.736;2023-09-19T14:51:29;4.97;;;1.83;;
54959;SDS011;40860;51.710;8.736;2023-09-19T14:55:35;6.18;;;2.10;;
54959;SDS011;40860;51.710;8.736;2023-09-19T14:59:44;4.55;;;2.30;;
54959;SDS011;40860;51.710;8.736;2023-09-19T15:03:47;3.45;;;1.95;;
54959;SDS011;40860;51.710;8.736;2023-09-19T15:07:51;3.28;;;1.98;;
54959;SDS011;40860;51.710;8.736;2023-09-19T15:11:54;4.82;;;2.20;;
54959;SDS011;40860;51.710;8.736;2023-09-19T15:16:00;5.45;;;2.20;;
54959;SDS011;40860;51.710;8.736;2023-09-19T15:20:04;2.90;;;1.80;;
54959;SDS011;40860;51.710;8.736;2023-09-19T15:24:08;4.32;;;1.90;;
54959;SDS011;40860;51.710;8.736;2023-09-19T15:28:11;5.35;;;2.35;;
54959;SDS011;40860;51.710;8.736;2023-09-19T15:32:15;4.38;;;2.10;;
54959;SDS011;40860;51.710;8.736;2023-09-19T15:36:18;7.10;;;2.03;;
54959;SDS011;40860;51.710;8.736;2023-09-19T15:40:21;5.57;;;2.33;;
54959;SDS011;40860;51.710;8.736;2023-09-19T15:44:25;5.78;;;2.15;;
54959;SDS011;40860;51.710;8.736;2023-09-19T15:48:29;5.10;;;2.13;;
54959;SDS011;40860;51.710;8.736;2023-09-19T15:52:32;4.43;;;2.38;;
54959;SDS011;40860;51.710;8.736;2023-09-19T15:56:34;4.53;;;1.95;;
54959;SDS011;40860;51.710;8.736;2023-09-19T16:00:39;5.35;;;2.20;;
54959;SDS011;40860;51.710;8.736;2023-09-19T16:04:44;4.28;;;2.00;;
54959;SDS011;40860;51.710;8.736;2023-09-19T16:08:47;3.35;;;1.75;;
54959;SDS011;40860;51.710;8.736;2023-09-19T16:12:51;5.53;;;1.90;;
54959;SDS011;40860;51.710;8.736;2023-09-19T16:16:54;5.68;;;2.25;;
54959;SDS011;40860;51.710;8.736;2023-09-19T16:21:03;3.78;;;1.92;;
54959;SDS011;40860;51.710;8.736;2023-09-19T16:25:07;5.20;;;2.30;;
54959;SDS011;40860;51.710;8.736;2023-09-19T16:29:13;3.83;;;1.70;;
54959;SDS011;40860;51.710;8.736;2023-09-19T16:33:16;5.93;;;2.30;;
54959;SDS011;40860;51.710;8.736;2023-09-19T16:37:20;4.25;;;1.98;;
54959;SDS011;40860;51.710;8.736;2023-09-19T16:41:24;5.25;;;2.08;;
54959;SDS011;40860;51.710;8.736;2023-09-19T16:45:27;5.80;;;2.10;;
54959;SDS011;40860;51.710;8.736;2023-09-19T16:49:30;5.03;;;1.92;;
54959;SDS011;40860;51.710;8.736;2023-09-19T16:53:35;6.95;;;1.98;;
54959;SDS011;40860;51.710;8.736;2023-09-19T16:57:39;6.10;;;2.20;;
54959;SDS011;40860;51.710;8.736;2023-09-19T17:01:44;4.70;;;2.50;;
54959;SDS011;40860;51.710;8.736;2023-09-19T17:05:47;3.42;;;1.33;;
54959;SDS011;40860;51.710;8.736;2023-09-19T17:09:51;4.22;;;1.52;;
54959;SDS011;40860;51.710;8.736;2023-09-19T17:13:54;2.60;;;1.23;;
54959;SDS011;40860;51.710;8.736;2023-09-19T17:17:58;5.47;;;1.25;;
54959;SDS011;40860;51.710;8.736;2023-09-19T17:22:02;4.50;;;1.30;;
54959;SDS011;40860;51.710;8.736;2023-09-19T17:26:07;1.88;;;1.10;;
54959;SDS011;40860;51.710;8.736;2023-09-19T17:30:12;2.35;;;1.08;;
54959;SDS011;40860;51.710;8.736;2023-09-19T17:34:16;4.00;;;1.52;;
54959;SDS011;40860;51.710;8.736;2023-09-19T17:38:19;4.22;;;1.15;;
54959;SDS011;40860;51.710;8.736;2023-09-19T17:42:25;2.60;;;1.30;;
54959;SDS011;40860;51.710;8.736;2023-09-19T17:46:28;5.45;;;1.67;;
54959;SDS011;40860;51.710;8.736;2023-09-19T17:50:31;3.50;;;1.23;;
54959;SDS011;40860;51.710;8.736;2023-09-19T17:54:35;4.55;;;1.58;;
54959;SDS011;40860;51.710;8.736;2023-09-19T17:58:39;4.20;;;1.38;;
54959;SDS011;40860;51.710;8.736;2023-09-19T18:02:44;2.47;;;1.33;;
54959;SDS011;40860;51.710;8.736;2023-09-19T18:06:47;6.53;;;1.83;;
54959;SDS011;40860;51.710;8.736;2023-09-19T18:10:50;2.72;;;1.25;;
54959;SDS011;40860;51.710;8.736;2023-09-19T18:14:55;3.78;;;1.65;;
54959;SDS011;40860;51.710;8.736;2023-09-19T18:18:58;5.45;;;1.45;;
54959;SDS011;40860;51.710;8.736;2023-09-19T18:23:03;5.70;;;2.00;;
54959;SDS011;40860;51.710;8.736;2023-09-19T18:27:06;4.20;;;1.35;;
54959;SDS011;40860;51.710;8.736;2023-09-19T18:31:11;4.00;;;1.45;;
54959;SDS011;40860;51.710;8.736;2023-09-19T18:35:14;6.28;;;1.55;;
54959;SDS011;40860;51.710;8.736;2023-09-19T18:39:17;5.63;;;1.33;;
54959;SDS011;40860;51.710;8.736;2023-09-19T18:43:21;4.72;;;1.52;;
54959;SDS011;40860;51.710;8.736;2023-09-19T18:47:26;4.45;;;1.33;;
54959;SDS011;40860;51.710;8.736;2023-09-19T18:51:30;6.55;;;1.75;;
54959;SDS011;40860;51.710;8.736;2023-09-19T18:55:34;3.13;;;1.38;;
54959;SDS011;40860;51.710;8.736;2023-09-19T18:59:38;3.08;;;1.40;;
54959;SDS011;40860;51.710;8.736;2023-09-19T19:03:42;4.88;;;1.40;;
54959;SDS011;40860;51.710;8.736;2023-09-19T19:07:47;3.58;;;1.77;;
54959;SDS011;40860;51.710;8.736;2023-09-19T19:11:50;2.28;;;1.15;;
54959;SDS011;40860;51.710;8.736;2023-09-19T19:15:56;3.15;;;1.50;;
54959;SDS011;40860;51.710;8.736;2023-09-19T19:20:00;4.20;;;1.67;;
54959;SDS011;40860;51.710;8.736;2023-09-19T19:24:05;3.38;;;1.52;;
54959;SDS011;40860;51.710;8.736;2023-09-19T19:28:09;3.05;;;1.27;;
54959;SDS011;40860;51.710;8.736;2023-09-19T19:32:12;5.93;;;1.52;;
54959;SDS011;40860;51.710;8.736;2023-09-19T19:36:16;4.63;;;1.50;;
54959;SDS011;40860;51.710;8.736;2023-09-19T19:40:20;2.70;;;1.40;;
54959;SDS011;40860;51.710;8.736;2023-09-19T19:44:29;4.88;;;1.42;;
54959;SDS011;40860;51.710;8.736;2023-09-19T19:48:32;2.83;;;1.27;;
54959;SDS011;40860;51.710;8.736;2023-09-19T19:52:46;3.63;;;1.92;;
54959;SDS011;40860;51.710;8.736;2023-09-19T19:56:54;5.50;;;1.75;;
54959;SDS011;40860;51.710;8.736;2023-09-19T20:00:58;5.15;;;1.33;;
54959;SDS011;40860;51.710;8.736;2023-09-19T20:05:01;4.97;;;1.45;;
54959;SDS011;40860;51.710;8.736;2023-09-19T20:09:07;3.45;;;1.52;;
54959;SDS011;40860;51.710;8.736;2023-09-19T20:13:10;4.82;;;1.52;;
54959;SDS011;40860;51.710;8.736;2023-09-19T20:17:15;3.33;;;1.55;;
54959;SDS011;40860;51.710;8.736;2023-09-19T20:21:18;2.20;;;1.25;;
54959;SDS011;40860;51.710;8.736;2023-09-19T20:25:24;4.60;;;1.45;;
54959;SDS011;40860;51.710;8.736;2023-09-19T20:29:29;3.65;;;1.30;;
54959;SDS011;40860;51.710;8.736;2023-09-19T20:33:35;5.65;;;1.40;;
54959;SDS011;40860;51.710;8.736;2023-09-19T20:37:40;2.03;;;1.00;;
54959;SDS011;40860;51.710;8.736;2023-09-19T20:41:44;6.13;;;1.40;;
54959;SDS011;40860;51.710;8.736;2023-09-19T20:45:48;3.03;;;1.23;;
54959;SDS011;40860;51.710;8.736;2023-09-19T20:49:54;4.40;;;1.50;;
54959;SDS011;40860;51.710;8.736;2023-09-19T20:53:57;4.07;;;1.67;;
54959;SDS011;40860;51.710;8.736;2023-09-19T20:58:02;4.57;;;1.83;;
54959;SDS011;40860;51.710;8.736;2023-09-19T21:02:07;2.83;;;1.27;;
54959;SDS011;40860;51.710;8.736;2023-09-19T21:06:11;2.78;;;1.35;;
54959;SDS011;40860;51.710;8.736;2023-09-19T21:10:16;3.88;;;1.40;;
54959;SDS011;40860;51.710;8.736;2023-09-19T21:14:21;3.67;;;1.38;;
54959;SDS011;40860;51.710;8.736;2023-09-19T21:18:24;3.15;;;1.30;;
54959;SDS011;40860;51.710;8.736;2023-09-19T21:22:27;1.88;;;1.20;;
54959;SDS011;40860;51.710;8.736;2023-09-19T21:26:29;3.60;;;1.75;;
54959;SDS011;40860;51.710;8.736;2023-09-19T21:30:34;4.18;;;1.60;;
54959;SDS011;40860;51.710;8.736;2023-09-19T21:34:37;5.57;;;1.50;;
54959;SDS011;40860;51.710;8.736;2023-09-19T21:38:40;2.33;;;1.25;;
54959;SDS011;40860;51.710;8.736;2023-09-19T21:42:43;3.33;;;1.30;;
54959;SDS011;40860;51.710;8.736;2023-09-19T21:46:49;4.85;;;1.48;;
54959;SDS011;40860;51.710;8.736;2023-09-19T21:50:53;5.30;;;1.60;;
54959;SDS011;40860;51.710;8.736;2023-09-19T21:54:57;3.85;;;1.60;;
54959;SDS011;40860;51.710;8.736;2023-09-19T21:59:00;4.00;;;1.40;;
54959;SDS011;40860;51.710;8.736;2023-09-19T22:03:05;2.17;;;1.42;;
54959;SDS011;40860;51.710;8.736;2023-09-19T22:07:09;3.55;;;1.52;;
54959;SDS011;40860;51.710;8.736;2023-09-19T22:11:12;2.90;;;1.33;;
54959;SDS011;40860;51.710;8.736;2023-09-19T22:15:16;3.90;;;1.30;;
54959;SDS011;40860;51.710;8.736;2023-09-19T22:19:21;2.58;;;1.40;;
54959;SDS011;40860;51.710;8.736;2023-09-19T22:23:23;3.83;;;1.73;;
54959;SDS011;40860;51.710;8.736;2023-09-19T22:27:33;3.85;;;1.92;;
54959;SDS011;40860;51.710;8.736;2023-09-19T22:31:36;5.50;;;1.70;;
54959;SDS011;40860;51.710;8.736;2023-09-19T22:35:45;2.60;;;1.67;;
54959;SDS011;40860;51.710;8.736;2023-09-19T22:40:01;4.10;;;1.50;;
54959;SDS011;40860;51.710;8.736;2023-09-19T22:44:13;5.50;;;1.73;;
54959;SDS011;40860;51.710;8.736;2023-09-19T22:48:16;3.63;;;1.67;;
54959;SDS011;40860;51.710;8.736;2023-09-19T22:52:20;4.10;;;1.48;;
54959;SDS011;40860;51.710;8.736;2023-09-19T22:56:25;5.20;;;1.60;;
54959;SDS011;40860;51.710;8.736;2023-09-19T23:00:29;3.15;;;1.50;;
54959;SDS011;40860;51.710;8.736;2023-09-19T23:04:34;3.17;;;1.67;;
54959;SDS011;40860;51.710;8.736;2023-09-19T23:08:40;4.60;;;1.90;;
54959;SDS011;40860;51.710;8.736;2023-09-19T23:12:43;3.78;;;1.80;;
54959;SDS011;40860;51.710;8.736;2023-09-19T23:16:46;5.03;;;2.25;;
54959;SDS011;40860;51.710;8.736;2023-09-19T23:20:57;4.22;;;1.60;;
54959;SDS011;40860;51.710;8.736;2023-09-19T23:25:17;7.43;;;2.42;;
54959;SDS011;40860;51.710;8.736;2023-09-19T23:29:27;3.70;;;2.10;;
54959;SDS011;40860;51.710;8.736;2023-09-19T23:33:30;5.05;;;2.00;;
54959;SDS011;40860;51.710;8.736;2023-09-19T23:37:33;4.70;;;1.92;;
54959;SDS011;40860;51.710;8.736;2023-09-19T23:41:37;3.90;;;1.95;;
54959;SDS011;40860;51.710;8.736;2023-09-19T23:45:40;9.15;;;2.22;;
54959;SDS011;40860;51.710;8.736;2023-09-19T23:49:45;3.75;;;1.90;;
54959;SDS011;40860;51.710;8.736;2023-09-19T23:53:50;4.90;;;2.10;;
54959;SDS011;40860;51.710;8.736;2023-09-19T23:57:54;6.18;;;2.00;;
